createdAt,value
2024-05-09T00:00:47.221Z,10.34
2024-05-09T00:01:48.941Z,10.34
2024-05-09T00:02:50.579Z,10.35
2024-05-09T00:03:52.288Z,10.35
2024-05-09T00:04:54.113Z,10.35
2024-05-09T00:05:55.813Z,10.36
2024-05-09T00:06:57.466Z,10.36
2024-05-09T00:07:59.246Z,10.36
2024-05-09T00:09:00.970Z,10.36
2024-05-09T00:10:03.170Z,10.36
2024-05-09T00:11:04.574Z,10.37
2024-05-09T00:12:06.263Z,10.36
2024-05-09T00:13:08.371Z,10.36
2024-05-09T00:14:09.637Z,10.36
2024-05-09T00:15:11.349Z,10.36
2024-05-09T00:16:13.057Z,10.35
2024-05-09T00:17:14.876Z,10.35
2024-05-09T00:18:16.713Z,10.35
2024-05-09T00:19:18.738Z,10.35
2024-05-09T00:20:24.629Z,10.35
2024-05-09T00:21:21.727Z,10.35
2024-05-09T00:22:23.465Z,10.35
2024-05-09T00:23:25.261Z,10.35
2024-05-09T00:24:26.969Z,10.36
2024-05-09T00:25:28.674Z,10.35
2024-05-09T00:26:30.434Z,10.37
2024-05-09T00:27:32.136Z,10.35
2024-05-09T00:28:33.884Z,10.35
2024-05-09T00:29:35.664Z,10.33
2024-05-09T00:30:37.709Z,10.32
2024-05-09T00:31:39.112Z,10.3
2024-05-09T00:32:40.963Z,10.29
2024-05-09T00:33:42.834Z,10.28
2024-05-09T00:34:44.279Z,10.26
2024-05-09T00:35:46.000Z,10.24
2024-05-09T00:36:47.725Z,10.22
2024-05-09T00:37:49.488Z,10.21
2024-05-09T00:38:51.215Z,10.19
2024-05-09T00:39:52.926Z,10.17
2024-05-09T00:40:54.675Z,10.15
2024-05-09T00:41:56.395Z,10.13
2024-05-09T00:42:58.230Z,10.11
2024-05-09T00:43:59.922Z,10.09
2024-05-09T00:45:01.616Z,10.07
2024-05-09T00:46:03.337Z,10.05
2024-05-09T00:47:05.210Z,10.02
2024-05-09T00:48:08.185Z,10
2024-05-09T00:49:08.603Z,9.97
2024-05-09T00:50:15.859Z,9.94
2024-05-09T00:51:12.169Z,9.9
2024-05-09T00:52:13.744Z,9.87
2024-05-09T00:53:15.999Z,9.82
2024-05-09T00:54:17.224Z,9.79
2024-05-09T00:55:18.947Z,9.75
2024-05-09T00:56:20.744Z,9.71
2024-05-09T00:57:22.400Z,9.68
2024-05-09T00:58:24.120Z,9.64
2024-05-09T00:59:25.987Z,9.61
2024-05-09T01:00:35.662Z,9.58
2024-05-09T01:01:29.414Z,9.56
2024-05-09T01:02:31.113Z,9.53
2024-05-09T01:03:33.168Z,9.52
2024-05-09T01:04:34.597Z,9.49
2024-05-09T01:05:36.330Z,9.48
2024-05-09T01:06:38.012Z,9.46
2024-05-09T01:07:39.749Z,9.45
2024-05-09T01:08:41.525Z,9.44
2024-05-09T01:09:43.220Z,9.43
2024-05-09T01:10:47.069Z,9.43
2024-05-09T01:11:46.737Z,9.43
2024-05-09T01:12:48.407Z,9.43
2024-05-09T01:13:50.160Z,9.42
2024-05-09T01:14:51.870Z,9.42
2024-05-09T01:15:53.608Z,9.41
2024-05-09T01:16:55.415Z,9.41
2024-05-09T01:17:57.695Z,9.4
2024-05-09T01:18:58.937Z,9.4
2024-05-09T01:20:00.722Z,9.39
2024-05-09T01:21:02.474Z,9.37
2024-05-09T01:22:04.130Z,9.36
2024-05-09T01:23:05.786Z,9.35
2024-05-09T01:24:07.661Z,9.33
2024-05-09T01:25:09.488Z,9.31
2024-05-09T01:26:10.968Z,9.29
2024-05-09T01:27:12.836Z,9.27
2024-05-09T01:28:14.398Z,9.24
2024-05-09T01:29:16.183Z,9.23
2024-05-09T01:30:24.225Z,9.2
2024-05-09T01:31:19.801Z,9.18
2024-05-09T01:32:21.743Z,9.15
2024-05-09T01:33:23.346Z,9.12
2024-05-09T01:34:24.822Z,9.08
2024-05-09T01:35:26.752Z,9.05
2024-05-09T01:36:28.275Z,9.02
2024-05-09T01:37:30.013Z,8.99
2024-05-09T01:38:31.858Z,8.97
2024-05-09T01:39:33.463Z,8.95
2024-05-09T01:40:38.726Z,8.93
2024-05-09T01:41:36.963Z,8.91
2024-05-09T01:42:38.692Z,8.9
2024-05-09T01:43:40.467Z,8.88
2024-05-09T01:44:42.161Z,8.86
2024-05-09T01:45:44.110Z,8.85
2024-05-09T01:46:45.716Z,8.83
2024-05-09T01:47:47.452Z,8.83
2024-05-09T01:48:49.207Z,8.82
2024-05-09T01:49:50.869Z,8.82
2024-05-09T01:50:52.651Z,8.8
2024-05-09T01:51:54.279Z,8.81
2024-05-09T01:52:56.025Z,8.81
2024-05-09T01:53:57.748Z,8.81
2024-05-09T01:55:01.990Z,8.81
2024-05-09T01:56:01.234Z,8.82
2024-05-09T01:57:02.990Z,8.82
2024-05-09T01:58:04.739Z,8.83
2024-05-09T01:59:06.516Z,8.83
2024-05-09T02:00:10.172Z,8.85
2024-05-09T02:01:10.000Z,8.86
2024-05-09T02:02:11.887Z,8.85
2024-05-09T02:03:16.156Z,8.85
2024-05-09T02:04:15.214Z,8.87
2024-05-09T02:05:16.888Z,8.88
2024-05-09T02:06:18.609Z,8.89
2024-05-09T02:07:20.289Z,8.9
2024-05-09T02:08:22.400Z,8.92
2024-05-09T02:09:23.753Z,8.92
2024-05-09T02:10:31.967Z,8.93
2024-05-09T02:11:27.371Z,8.94
2024-05-09T02:12:29.022Z,8.94
2024-05-09T02:13:30.689Z,8.96
2024-05-09T02:14:32.449Z,8.96
2024-05-09T02:15:34.157Z,8.96
2024-05-09T02:16:35.903Z,8.96
2024-05-09T02:17:38.056Z,8.97
2024-05-09T02:18:39.481Z,8.97
2024-05-09T02:19:41.107Z,8.97
2024-05-09T02:20:43.583Z,8.96
2024-05-09T02:21:44.549Z,8.97
2024-05-09T02:22:46.349Z,8.96
2024-05-09T02:23:48.032Z,8.95
2024-05-09T02:24:49.902Z,8.95
2024-05-09T02:25:51.517Z,8.94
2024-05-09T02:26:53.276Z,8.92
2024-05-09T02:27:54.947Z,8.91
2024-05-09T02:28:56.742Z,8.9
2024-05-09T02:29:58.428Z,8.89
2024-05-09T02:31:00.162Z,8.87
2024-05-09T02:32:01.980Z,8.87
2024-05-09T02:33:03.787Z,8.86
2024-05-09T02:34:05.634Z,8.86
2024-05-09T02:35:07.134Z,8.85
2024-05-09T02:36:08.816Z,8.83
2024-05-09T02:37:10.592Z,8.84
2024-05-09T02:38:12.632Z,8.83
2024-05-09T02:39:14.088Z,8.82
2024-05-09T02:40:21.637Z,8.8
2024-05-09T02:41:17.513Z,8.79
2024-05-09T02:42:19.239Z,8.78
2024-05-09T02:43:21.123Z,8.76
2024-05-09T02:44:22.832Z,8.76
2024-05-09T02:45:24.414Z,8.74
2024-05-09T02:46:26.254Z,8.73
2024-05-09T02:47:28.037Z,8.72
2024-05-09T02:48:29.699Z,8.71
2024-05-09T02:49:31.477Z,8.71
2024-05-09T02:50:38.175Z,8.7
2024-05-09T02:51:34.835Z,8.7
2024-05-09T02:52:36.563Z,8.69
2024-05-09T02:53:38.504Z,8.68
2024-05-09T02:54:40.015Z,8.66
2024-05-09T02:55:42.020Z,8.65
2024-05-09T02:56:43.484Z,8.63
2024-05-09T02:57:45.246Z,8.61
2024-05-09T02:58:46.980Z,8.59
2024-05-09T02:59:48.707Z,8.57
2024-05-09T03:00:50.451Z,8.54
2024-05-09T03:01:52.251Z,8.51
2024-05-09T03:02:54.051Z,8.48
2024-05-09T03:03:55.916Z,8.46
2024-05-09T03:04:57.414Z,8.44
2024-05-09T03:05:59.083Z,8.42
2024-05-09T03:07:00.815Z,8.4
2024-05-09T03:08:02.642Z,8.38
2024-05-09T03:09:04.418Z,8.36
2024-05-09T03:10:11.911Z,8.33
2024-05-09T03:11:07.912Z,8.32
2024-05-09T03:12:09.602Z,8.29
2024-05-09T03:13:11.291Z,8.27
2024-05-09T03:14:12.977Z,8.25
2024-05-09T03:15:14.681Z,8.24
2024-05-09T03:16:16.438Z,8.22
2024-05-09T03:17:18.371Z,8.2
2024-05-09T03:18:20.037Z,8.19
2024-05-09T03:19:21.898Z,8.18
2024-05-09T03:20:27.565Z,8.16
2024-05-09T03:21:25.110Z,8.15
2024-05-09T03:22:26.830Z,8.14
2024-05-09T03:23:28.651Z,8.12
2024-05-09T03:24:30.290Z,8.12
2024-05-09T03:25:32.025Z,8.11
2024-05-09T03:26:33.805Z,8.09
2024-05-09T03:27:35.504Z,8.08
2024-05-09T03:28:37.230Z,8.07
2024-05-09T03:29:39.015Z,8.08
2024-05-09T03:30:42.963Z,8.07
2024-05-09T03:31:42.491Z,8.07
2024-05-09T03:32:44.319Z,8.08
2024-05-09T03:33:46.068Z,8.09
2024-05-09T03:34:47.650Z,8.1
2024-05-09T03:35:49.748Z,8.1
2024-05-09T03:36:51.089Z,8.12
2024-05-09T03:37:52.883Z,8.11
2024-05-09T03:38:54.594Z,8.12
2024-05-09T03:39:56.307Z,8.12
2024-05-09T03:40:58.078Z,8.11
2024-05-09T03:41:59.763Z,8.12
2024-05-09T03:43:01.553Z,8.13
2024-05-09T03:44:03.336Z,8.12
2024-05-09T03:45:04.979Z,8.13
2024-05-09T03:46:06.701Z,8.13
2024-05-09T03:47:08.570Z,8.13
2024-05-09T03:48:10.562Z,8.13
2024-05-09T03:49:12.129Z,8.13
2024-05-09T03:50:21.996Z,8.13
2024-05-09T03:51:15.392Z,8.12
2024-05-09T03:52:17.118Z,8.12
2024-05-09T03:53:18.890Z,8.11
2024-05-09T03:54:20.594Z,8.1
2024-05-09T03:55:22.455Z,8.08
2024-05-09T03:56:24.106Z,8.08
2024-05-09T03:57:25.795Z,8.08
2024-05-09T03:58:27.532Z,8.07
2024-05-09T03:59:29.304Z,8.05
2024-05-09T04:00:37.486Z,8.05
2024-05-09T04:01:32.810Z,8.04
2024-05-09T04:02:34.513Z,8.04
2024-05-09T04:03:36.318Z,8.04
2024-05-09T04:04:37.955Z,8.03
2024-05-09T04:05:40.415Z,8.03
2024-05-09T04:06:41.510Z,8.02
2024-05-09T04:07:43.125Z,8.02
2024-05-09T04:08:45.169Z,8.02
2024-05-09T04:09:46.604Z,8.02
2024-05-09T04:10:48.432Z,8.01
2024-05-09T04:11:50.190Z,8.01
2024-05-09T04:12:51.803Z,8.01
2024-05-09T04:13:53.544Z,8.01
2024-05-09T04:14:55.276Z,8
2024-05-09T04:15:56.972Z,8
2024-05-09T04:16:58.746Z,8
2024-05-09T04:18:01.513Z,8
2024-05-09T04:19:02.367Z,8.01
2024-05-09T04:20:05.140Z,8
2024-05-09T04:21:05.760Z,8.01
2024-05-09T04:22:07.591Z,8.01
2024-05-09T04:23:09.639Z,8.02
2024-05-09T04:24:10.888Z,8.02
2024-05-09T04:25:12.688Z,8.03
2024-05-09T04:26:14.357Z,8.04
2024-05-09T04:27:16.221Z,8.05
2024-05-09T04:28:17.793Z,8.06
2024-05-09T04:29:19.594Z,8.07
2024-05-09T04:30:30.257Z,8.08
2024-05-09T04:31:23.012Z,8.11
2024-05-09T04:32:24.851Z,8.12
2024-05-09T04:33:27.686Z,8.14
2024-05-09T04:34:28.352Z,8.16
2024-05-09T04:35:29.999Z,8.18
2024-05-09T04:36:31.652Z,8.2
2024-05-09T04:37:33.392Z,8.22
2024-05-09T04:38:35.255Z,8.24
2024-05-09T04:39:36.926Z,8.26
2024-05-09T04:40:38.769Z,8.28
2024-05-09T04:41:40.368Z,8.3
2024-05-09T04:42:42.090Z,8.33
2024-05-09T04:43:43.801Z,8.34
2024-05-09T04:44:45.522Z,8.36
2024-05-09T04:45:47.305Z,8.38
2024-05-09T04:46:49.019Z,8.4
2024-05-09T04:47:50.967Z,8.41
2024-05-09T04:48:52.627Z,8.43
2024-05-09T04:49:54.292Z,8.44
2024-05-09T04:50:56.001Z,8.46
2024-05-09T04:51:57.666Z,8.46
2024-05-09T04:52:59.471Z,8.48
2024-05-09T04:54:01.146Z,8.5
2024-05-09T04:55:02.866Z,8.5
2024-05-09T04:56:04.919Z,8.52
2024-05-09T04:57:06.420Z,8.54
2024-05-09T04:58:08.093Z,8.56
2024-05-09T04:59:09.877Z,8.57
2024-05-09T05:00:14.794Z,8.58
2024-05-09T05:01:13.339Z,8.6
2024-05-09T05:02:15.139Z,8.62
2024-05-09T05:03:17.346Z,8.63
2024-05-09T05:04:18.620Z,8.65
2024-05-09T05:05:20.290Z,8.67
2024-05-09T05:06:21.982Z,8.68
2024-05-09T05:07:23.685Z,8.7
2024-05-09T05:08:25.496Z,8.71
2024-05-09T05:09:27.164Z,8.73
2024-05-09T05:10:34.057Z,8.75
2024-05-09T05:11:30.733Z,8.77
2024-05-09T05:12:32.462Z,8.8
2024-05-09T05:13:34.681Z,8.84
2024-05-09T05:14:35.831Z,8.88
2024-05-09T05:15:37.563Z,8.92
2024-05-09T05:16:39.403Z,8.96
2024-05-09T05:17:41.257Z,8.99
2024-05-09T05:18:42.874Z,9.02
2024-05-09T05:19:44.739Z,9.06
2024-05-09T05:20:46.400Z,9.1
2024-05-09T05:21:47.970Z,9.13
2024-05-09T05:22:49.708Z,9.18
2024-05-09T05:23:51.454Z,9.22
2024-05-09T05:24:53.209Z,9.26
2024-05-09T05:25:55.373Z,9.29
2024-05-09T05:26:56.638Z,9.32
2024-05-09T05:27:58.362Z,9.37
2024-05-09T05:29:00.147Z,9.4
2024-05-09T05:30:01.847Z,9.43
2024-05-09T05:31:03.567Z,9.47
2024-05-09T05:32:05.512Z,9.51
2024-05-09T05:33:07.461Z,9.55
2024-05-09T05:34:08.824Z,9.59
2024-05-09T05:35:10.647Z,9.62
2024-05-09T05:36:12.215Z,9.65
2024-05-09T05:37:13.995Z,9.69
2024-05-09T05:38:15.851Z,9.74
2024-05-09T05:39:17.465Z,9.79
2024-05-09T05:40:28.135Z,9.85
2024-05-09T05:41:20.927Z,9.92
2024-05-09T05:42:22.626Z,9.96
2024-05-09T05:43:24.344Z,10.01
2024-05-09T05:44:26.189Z,10.08
2024-05-09T05:45:27.854Z,10.15
2024-05-09T05:46:29.593Z,10.21
2024-05-09T05:47:31.487Z,10.28
2024-05-09T05:48:33.143Z,10.35
2024-05-09T05:49:34.820Z,10.41
2024-05-09T05:50:38.280Z,10.5
2024-05-09T05:51:38.239Z,10.58
2024-05-09T05:52:40.015Z,10.65
2024-05-09T05:53:41.749Z,10.73
2024-05-09T05:54:43.435Z,10.81
2024-05-09T05:55:45.266Z,10.89
2024-05-09T05:56:46.955Z,10.98
2024-05-09T05:57:48.655Z,11.05
2024-05-09T05:58:50.398Z,11.14
2024-05-09T05:59:52.152Z,11.23
2024-05-09T06:00:54.024Z,11.31
2024-05-09T06:01:55.624Z,11.38
2024-05-09T06:02:57.373Z,11.46
2024-05-09T06:03:59.137Z,11.53
2024-05-09T06:05:00.945Z,11.61
2024-05-09T06:06:02.706Z,11.69
2024-05-09T06:07:04.249Z,11.76
2024-05-09T06:08:06.131Z,11.82
2024-05-09T06:09:07.766Z,11.9
2024-05-09T06:10:17.193Z,11.97
2024-05-09T06:11:11.288Z,12.06
2024-05-09T06:12:13.071Z,12.14
2024-05-09T06:13:14.759Z,12.22
2024-05-09T06:14:16.459Z,12.31
2024-05-09T06:15:18.122Z,12.41
2024-05-09T06:16:19.837Z,12.51
2024-05-09T06:17:21.778Z,12.61
2024-05-09T06:18:23.655Z,12.71
2024-05-09T06:19:25.143Z,12.78
2024-05-09T06:20:34.770Z,12.88
2024-05-09T06:21:28.547Z,12.98
2024-05-09T06:22:30.267Z,13.07
2024-05-09T06:23:32.089Z,13.15
2024-05-09T06:24:33.770Z,13.25
2024-05-09T06:25:35.811Z,13.34
2024-05-09T06:26:37.223Z,13.45
2024-05-09T06:27:39.113Z,13.53
2024-05-09T06:28:40.726Z,13.61
2024-05-09T06:29:42.418Z,13.69
2024-05-09T06:30:44.109Z,13.77
2024-05-09T06:31:45.900Z,13.87
2024-05-09T06:32:47.820Z,13.95
2024-05-09T06:33:49.645Z,14.02
2024-05-09T06:34:51.083Z,14.1
2024-05-09T06:35:52.830Z,14.17
2024-05-09T06:36:54.515Z,14.24
2024-05-09T06:37:56.291Z,14.31
2024-05-09T06:38:58.000Z,14.37
2024-05-09T06:39:59.731Z,14.43
2024-05-09T06:41:01.505Z,14.47
2024-05-09T06:42:03.210Z,14.52
2024-05-09T06:43:04.931Z,14.57
2024-05-09T06:44:06.683Z,14.62
2024-05-09T06:45:08.384Z,14.68
2024-05-09T06:46:10.155Z,14.75
2024-05-09T06:47:11.917Z,14.76
2024-05-09T06:48:13.762Z,14.83
2024-05-09T06:49:15.597Z,14.89
2024-05-09T06:50:23.747Z,14.95
2024-05-09T06:51:18.911Z,15.02
2024-05-09T06:52:20.541Z,15.1
2024-05-09T06:53:22.336Z,15.15
2024-05-09T06:54:24.009Z,15.15
2024-05-09T06:55:25.732Z,15.21
2024-05-09T06:56:27.533Z,15.21
2024-05-09T06:57:29.179Z,15.21
2024-05-09T06:58:30.923Z,15.25
2024-05-09T06:59:32.790Z,15.29
2024-05-09T07:00:39.361Z,15.32
2024-05-09T07:01:36.283Z,15.33
2024-05-09T07:02:38.106Z,15.37
2024-05-09T07:03:39.702Z,15.39
2024-05-09T07:04:41.431Z,15.45
2024-05-09T07:05:43.367Z,15.48
2024-05-09T07:06:44.821Z,15.54
2024-05-09T07:07:46.588Z,15.57
2024-05-09T07:08:48.973Z,15.63
2024-05-09T07:09:50.037Z,15.68
2024-05-09T07:10:51.826Z,15.72
2024-05-09T07:11:53.620Z,15.77
2024-05-09T07:12:55.200Z,15.8
2024-05-09T07:13:56.947Z,15.82
2024-05-09T07:14:58.675Z,15.83
2024-05-09T07:16:00.429Z,15.85
2024-05-09T07:17:02.385Z,15.88
2024-05-09T07:18:04.111Z,15.89
2024-05-09T07:19:05.800Z,15.92
2024-05-09T07:20:11.670Z,15.95
2024-05-09T07:21:09.169Z,15.98
2024-05-09T07:22:10.812Z,15.97
2024-05-09T07:23:12.907Z,15.99
2024-05-09T07:24:14.309Z,16.01
2024-05-09T07:25:16.044Z,16.03
2024-05-09T07:26:17.949Z,16.07
2024-05-09T07:27:19.495Z,16.1
2024-05-09T07:28:21.285Z,16.13
2024-05-09T07:29:22.990Z,16.17
2024-05-09T07:30:30.861Z,16.21
2024-05-09T07:31:26.412Z,16.25
2024-05-09T07:32:28.389Z,16.28
2024-05-09T07:33:30.097Z,16.31
2024-05-09T07:34:31.695Z,16.38
2024-05-09T07:35:33.592Z,16.41
2024-05-09T07:36:35.105Z,16.43
2024-05-09T07:37:36.829Z,16.47
2024-05-09T07:38:38.659Z,16.5
2024-05-09T07:39:40.284Z,16.53
2024-05-09T07:40:42.185Z,16.55
2024-05-09T07:41:43.797Z,16.57
2024-05-09T07:42:45.487Z,16.6
2024-05-09T07:43:47.293Z,16.6
2024-05-09T07:44:48.970Z,16.62
2024-05-09T07:45:54.162Z,16.62
2024-05-09T07:50:34.940Z,16.66
2024-05-09T07:53:00.965Z,16.67
2024-05-09T07:53:22.189Z,16.69
2024-05-09T07:53:36.165Z,16.7
2024-05-09T07:54:05.079Z,16.74
2024-05-09T07:55:06.435Z,16.76
2024-05-09T07:56:09.377Z,16.79
2024-05-09T07:57:09.834Z,16.82
2024-05-09T07:58:11.688Z,16.86
2024-05-09T07:59:13.742Z,16.86
2024-05-09T08:00:20.376Z,16.87
2024-05-09T08:01:17.015Z,16.88
2024-05-09T08:02:18.513Z,16.9
2024-05-09T08:03:20.418Z,16.91
2024-05-09T08:04:23.665Z,16.93
2024-05-09T08:05:23.841Z,16.95
2024-05-09T08:06:25.793Z,16.95
2024-05-09T08:07:27.307Z,16.95
2024-05-09T08:08:30.439Z,16.98
2024-05-09T08:09:30.812Z,16.99
2024-05-09T08:10:32.460Z,17
2024-05-09T08:11:34.227Z,17.02
2024-05-09T08:12:35.879Z,17.02
2024-05-09T08:13:37.614Z,17.03
2024-05-09T08:14:39.315Z,17.04
2024-05-09T08:15:41.266Z,17.06
2024-05-09T08:16:42.933Z,17.09
2024-05-09T08:17:44.622Z,17.12
2024-05-09T08:18:46.394Z,17.15
2024-05-09T08:19:48.068Z,17.19
2024-05-09T08:20:49.792Z,17.22
2024-05-09T08:21:51.507Z,17.26
2024-05-09T08:22:53.172Z,17.31
2024-05-09T08:23:54.911Z,17.34
2024-05-09T08:24:56.773Z,17.36
2024-05-09T08:25:58.368Z,17.39
2024-05-09T08:27:00.150Z,17.42
2024-05-09T08:28:02.123Z,17.46
2024-05-09T08:29:03.645Z,17.47
2024-05-09T08:30:18.450Z,17.48
2024-05-09T08:31:15.169Z,17.44
2024-05-09T08:32:15.402Z,17.48
2024-05-09T08:33:18.620Z,17.49
2024-05-09T08:34:20.236Z,17.51
2024-05-09T08:36:21.980Z,17.52
2024-05-09T08:37:27.821Z,17.54
2024-05-09T08:38:25.448Z,17.52
2024-05-09T08:39:27.292Z,17.51
2024-05-09T08:40:34.485Z,17.53
2024-05-09T08:41:30.736Z,17.51
2024-05-09T08:42:33.034Z,17.54
2024-05-09T08:43:33.321Z,17.52
2024-05-09T08:44:35.846Z,17.53
2024-05-09T08:45:44.573Z,17.56
2024-05-09T08:46:44.623Z,17.57
2024-05-09T08:47:46.307Z,17.64
2024-05-09T08:48:48.205Z,17.64
2024-05-09T08:49:49.722Z,17.68
2024-05-09T08:50:51.471Z,17.74
2024-05-09T08:51:53.317Z,17.78
2024-05-09T08:52:54.948Z,17.83
2024-05-09T08:53:56.593Z,17.86
2024-05-09T08:54:58.412Z,17.91
2024-05-09T08:56:00.081Z,17.94
2024-05-09T08:57:01.808Z,17.97
2024-05-09T08:58:03.705Z,17.99
2024-05-09T08:59:05.346Z,18
2024-05-09T09:00:10.242Z,18.03
2024-05-09T09:01:08.817Z,18.08
2024-05-09T09:02:10.624Z,18.1
2024-05-09T09:03:12.311Z,18.14
2024-05-09T09:04:14.126Z,18.17
2024-05-09T09:05:15.942Z,18.23
2024-05-09T09:06:17.429Z,18.27
2024-05-09T09:07:19.188Z,18.31
2024-05-09T09:08:20.895Z,18.35
2024-05-09T09:09:22.610Z,18.39
2024-05-09T09:10:29.941Z,18.37
2024-05-09T09:11:26.133Z,18.37
2024-05-09T09:12:27.836Z,18.4
2024-05-09T09:13:29.550Z,18.42
2024-05-09T09:14:31.278Z,18.42
2024-05-09T09:15:33.364Z,18.41
2024-05-09T09:16:34.755Z,18.43
2024-05-09T09:17:36.586Z,18.46
2024-05-09T09:18:38.620Z,18.46
2024-05-09T09:19:40.088Z,18.49
2024-05-09T09:20:41.790Z,18.52
2024-05-09T09:21:43.492Z,18.53
2024-05-09T09:22:45.147Z,18.54
2024-05-09T09:23:46.892Z,18.53
2024-05-09T09:24:48.698Z,18.54
2024-05-09T09:25:50.344Z,18.55
2024-05-09T09:26:52.085Z,18.58
2024-05-09T09:27:53.846Z,18.62
2024-05-09T09:28:55.565Z,18.63
2024-05-09T09:29:57.296Z,18.66
2024-05-09T09:30:59.042Z,18.65
2024-05-09T09:32:00.757Z,18.62
2024-05-09T09:33:02.638Z,18.64
2024-05-09T09:34:04.456Z,18.66
2024-05-09T09:35:05.978Z,18.67
2024-05-09T09:36:09.713Z,18.7
2024-05-09T09:37:09.709Z,18.71
2024-05-09T09:38:11.290Z,18.74
2024-05-09T09:39:12.883Z,18.77
2024-05-09T09:40:15.671Z,18.8
2024-05-09T09:41:16.340Z,18.81
2024-05-09T09:42:18.080Z,18.85
2024-05-09T09:43:19.867Z,18.89
2024-05-09T09:44:21.540Z,18.92
2024-05-09T09:45:23.329Z,18.95
2024-05-09T09:46:25.169Z,18.97
2024-05-09T09:47:26.873Z,19.01
2024-05-09T09:48:28.632Z,19.06
2024-05-09T09:49:30.231Z,19.09
2024-05-09T09:50:34.732Z,19.1
2024-05-09T09:51:33.746Z,19.1
2024-05-09T09:52:35.415Z,19.15
2024-05-09T09:53:37.138Z,19.16
2024-05-09T09:54:38.917Z,19.19
2024-05-09T09:55:40.625Z,19.22
2024-05-09T09:56:42.335Z,19.26
2024-05-09T09:57:44.131Z,19.28
2024-05-09T09:58:45.830Z,19.26
2024-05-09T09:59:47.566Z,19.29
2024-05-09T10:00:49.448Z,19.3
2024-05-09T10:01:51.113Z,19.28
2024-05-09T10:02:52.910Z,19.32
2024-05-09T10:03:54.603Z,19.34
2024-05-09T10:04:56.319Z,19.37
2024-05-09T10:05:58.068Z,19.37
2024-05-09T10:06:59.769Z,19.4
2024-05-09T10:08:01.410Z,19.39
2024-05-09T10:09:03.169Z,19.34
2024-05-09T10:10:06.885Z,19.32
2024-05-09T10:11:06.845Z,19.22
2024-05-09T10:12:09.498Z,19.16
2024-05-09T10:13:10.150Z,19.09
2024-05-09T10:14:11.809Z,19.11
2024-05-09T10:15:13.542Z,19.09
2024-05-09T10:16:15.351Z,19.07
2024-05-09T10:17:17.062Z,19.08
2024-05-09T10:18:18.832Z,19.1
2024-05-09T10:19:20.576Z,19.1
2024-05-09T10:20:27.907Z,19.14
2024-05-09T10:21:23.975Z,19.17
2024-05-09T10:22:25.722Z,19.2
2024-05-09T10:23:27.449Z,19.24
2024-05-09T10:24:29.154Z,19.27
2024-05-09T10:25:31.018Z,19.31
2024-05-09T10:26:32.620Z,19.3
2024-05-09T10:27:34.433Z,19.27
2024-05-09T10:28:36.249Z,19.27
2024-05-09T10:29:37.821Z,19.3
2024-05-09T10:30:40.063Z,19.33
2024-05-09T10:31:41.324Z,19.37
2024-05-09T10:32:43.147Z,19.39
2024-05-09T10:33:45.006Z,19.41
2024-05-09T10:34:46.516Z,19.44
2024-05-09T10:35:48.225Z,19.48
2024-05-09T10:36:49.991Z,19.47
2024-05-09T10:37:51.734Z,19.51
2024-05-09T10:38:53.429Z,19.54
2024-05-09T10:39:55.171Z,19.57
2024-05-09T10:40:56.915Z,19.61
2024-05-09T10:41:58.626Z,19.63
2024-05-09T10:43:03.488Z,19.66
2024-05-09T10:44:02.094Z,19.7
2024-05-09T10:45:03.818Z,19.71
2024-05-09T10:46:05.692Z,19.7
2024-05-09T10:47:07.321Z,19.74
2024-05-09T10:48:09.149Z,19.76
2024-05-09T10:49:10.838Z,19.79
2024-05-09T10:50:18.599Z,19.77
2024-05-09T10:51:14.211Z,19.79
2024-05-09T10:52:16.193Z,19.82
2024-05-09T10:53:17.690Z,19.85
2024-05-09T10:54:19.443Z,19.8
2024-05-09T10:55:21.540Z,19.84
2024-05-09T10:56:22.941Z,19.85
2024-05-09T10:57:24.647Z,19.84
2024-05-09T10:58:26.349Z,19.85
2024-05-09T10:59:28.105Z,19.83
2024-05-09T11:00:33.800Z,19.87
2024-05-09T11:01:31.688Z,19.89
2024-05-09T11:02:33.559Z,19.92
2024-05-09T11:03:35.642Z,19.93
2024-05-09T11:04:36.956Z,19.91
2024-05-09T11:05:38.701Z,19.94
2024-05-09T11:06:40.329Z,19.96
2024-05-09T11:07:42.228Z,19.96
2024-05-09T11:08:43.690Z,19.97
2024-05-09T11:09:45.446Z,19.99
2024-05-09T11:10:47.385Z,20.01
2024-05-09T11:11:48.980Z,20.04
2024-05-09T11:12:50.692Z,20.08
2024-05-09T11:13:52.384Z,20.1
2024-05-09T11:14:54.121Z,20.12
2024-05-09T11:15:55.849Z,20.14
2024-05-09T11:16:57.560Z,20.17
2024-05-09T11:17:59.402Z,20.2
2024-05-09T11:19:01.227Z,20.22
2024-05-09T11:20:08.094Z,20.22
2024-05-09T11:21:04.500Z,20.22
2024-05-09T11:22:06.265Z,20.26
2024-05-09T11:23:07.972Z,20.26
2024-05-09T11:24:11.293Z,20.26
2024-05-09T11:25:11.530Z,20.23
2024-05-09T11:26:13.168Z,20.19
2024-05-09T11:27:14.919Z,20.17
2024-05-09T11:28:16.805Z,20.14
2024-05-09T11:29:19.733Z,20.15
2024-05-09T11:30:26.484Z,20.15
2024-05-09T11:31:22.135Z,20.16
2024-05-09T11:32:23.594Z,20.19
2024-05-09T11:33:25.349Z,20.21
2024-05-09T11:34:27.173Z,20.24
2024-05-09T11:35:28.779Z,20.28
2024-05-09T11:36:30.549Z,20.29
2024-05-09T11:37:34.673Z,20.31
2024-05-09T11:38:33.979Z,20.3
2024-05-09T11:39:35.736Z,20.33
2024-05-09T11:40:37.561Z,20.34
2024-05-09T11:41:39.162Z,20.36
2024-05-09T11:42:40.912Z,20.37
2024-05-09T11:43:42.676Z,20.39
2024-05-09T11:44:44.366Z,20.4
2024-05-09T11:45:46.267Z,20.4
2024-05-09T11:46:47.828Z,20.42
2024-05-09T11:47:49.793Z,20.43
2024-05-09T11:48:51.534Z,20.45
2024-05-09T11:49:53.097Z,20.48
2024-05-09T11:50:54.766Z,20.49
2024-05-09T11:51:56.451Z,20.49
2024-05-09T11:52:58.086Z,20.53
2024-05-09T11:53:59.837Z,20.58
2024-05-09T11:55:01.628Z,20.59
2024-05-09T11:56:03.518Z,20.63
2024-05-09T11:57:05.029Z,20.67
2024-05-09T11:58:06.861Z,20.7
2024-05-09T11:59:08.492Z,20.72
2024-05-09T12:00:14.873Z,20.75
2024-05-09T12:01:12.098Z,20.72
2024-05-09T12:02:13.793Z,20.73
2024-05-09T12:03:15.543Z,20.74
2024-05-09T12:04:17.330Z,20.7
2024-05-09T12:05:19.280Z,20.73
2024-05-09T12:06:20.630Z,20.73
2024-05-09T12:07:22.479Z,20.73
2024-05-09T12:08:24.097Z,20.74
2024-05-09T12:09:25.834Z,20.76
2024-05-09T12:10:33.191Z,20.78
2024-05-09T12:11:29.391Z,20.81
2024-05-09T12:12:31.367Z,20.85
2024-05-09T12:13:32.894Z,20.9
2024-05-09T12:14:34.716Z,20.96
2024-05-09T12:15:37.741Z,20.99
2024-05-09T12:16:38.031Z,21.05
2024-05-09T12:17:39.806Z,21.08
2024-05-09T12:18:41.485Z,21.12
2024-05-09T12:19:43.204Z,21.11
2024-05-09T12:20:44.910Z,21.12
2024-05-09T12:21:46.760Z,21.1
2024-05-09T12:22:48.360Z,21.11
2024-05-09T12:23:50.096Z,21.1
2024-05-09T12:24:51.878Z,21.08
2024-05-09T12:25:53.552Z,21.03
2024-05-09T12:26:55.338Z,21.05
2024-05-09T12:27:57.052Z,21.07
2024-05-09T12:28:58.767Z,21.06
2024-05-09T12:30:00.538Z,21.07
2024-05-09T12:31:02.419Z,21.09
2024-05-09T12:32:04.058Z,21.1
2024-05-09T12:33:06.106Z,21.12
2024-05-09T12:34:07.506Z,21.16
2024-05-09T12:35:09.231Z,21.17
2024-05-09T12:36:10.929Z,21.19
2024-05-09T12:37:12.839Z,21.18
2024-05-09T12:38:14.374Z,21.17
2024-05-09T12:39:16.098Z,21.14
2024-05-09T12:40:26.267Z,21.16
2024-05-09T12:41:19.567Z,21.17
2024-05-09T12:42:27.238Z,21.17
2024-05-09T12:43:23.297Z,21.15
2024-05-09T12:44:24.750Z,21.17
2024-05-09T12:45:26.540Z,21.16
2024-05-09T12:46:28.517Z,21.12
2024-05-09T12:47:30.049Z,21.16
2024-05-09T12:48:31.825Z,21.2
2024-05-09T12:49:33.652Z,21.25
2024-05-09T12:50:35.594Z,21.27
2024-05-09T12:51:36.935Z,21.31
2024-05-09T12:52:38.629Z,21.32
2024-05-09T12:53:40.348Z,21.33
2024-05-09T12:54:42.143Z,21.34
2024-05-09T12:55:52.621Z,21.36
2024-05-09T12:56:45.596Z,21.33
2024-05-09T12:57:47.383Z,21.36
2024-05-09T12:58:49.031Z,21.35
2024-05-09T12:59:50.771Z,21.36
2024-05-09T13:00:52.972Z,21.35
2024-05-09T13:01:55.902Z,21.34
2024-05-09T13:02:56.122Z,21.35
2024-05-09T13:03:57.910Z,21.35
2024-05-09T13:04:59.540Z,21.35
2024-05-09T13:06:01.240Z,21.37
2024-05-09T13:07:06.408Z,21.38
2024-05-09T13:08:04.642Z,21.37
2024-05-09T13:09:06.372Z,21.38
2024-05-09T13:10:11.898Z,21.42
2024-05-09T13:11:09.915Z,21.46
2024-05-09T13:12:11.566Z,21.51
2024-05-09T13:13:13.502Z,21.53
2024-05-09T13:14:15.072Z,21.56
2024-05-09T13:15:16.754Z,21.61
2024-05-09T13:16:18.729Z,21.65
2024-05-09T13:17:20.329Z,21.7
2024-05-09T13:18:22.035Z,21.72
2024-05-09T13:19:23.844Z,21.75
2024-05-09T13:20:31.663Z,21.76
2024-05-09T13:21:27.168Z,21.77
2024-05-09T13:22:28.912Z,21.76
2024-05-09T13:23:30.644Z,21.76
2024-05-09T13:24:32.471Z,21.78
2024-05-09T13:25:34.141Z,21.79
2024-05-09T13:26:35.832Z,21.8
2024-05-09T13:27:37.564Z,21.8
2024-05-09T13:28:39.318Z,21.79
2024-05-09T13:29:44.156Z,21.79
2024-05-09T13:30:42.864Z,21.81
2024-05-09T13:31:44.752Z,21.81